Time;durP1;ratioP1;P1;durP2;ratioP2;P2;SDS_P1;SDS_P2;PMS_P1;PMS_P2;Temp;Humidity;BMP_temperature;BMP_pressure;BME280_temperature;BME280_humidity;BME280_pressure;Samples;Min_cycle;Max_cycle;Signal;HPM_P1;HPM_P2
2020/12/24 00:00:29;;;;;;;6.17;2.80;;;9.80;99.90;;;-146.47;100.00;66290.13;4936362;29;20246;-79
2020/12/24 00:03:15;;;;;;;7.40;2.80;;;9.80;99.90;;;-146.47;100.00;66290.13;4934994;29;20258;-79
2020/12/24 00:06:00;;;;;;;5.97;3.80;;;9.70;99.90;;;-146.47;100.00;66290.13;4948724;29;20635;-79
2020/12/24 00:08:45;;;;;;;4.63;2.70;;;9.70;99.90;;;-146.47;100.00;66290.13;4955731;29;20638;-79
2020/12/24 00:11:31;;;;;;;7.73;3.23;;;9.70;99.90;;;-146.47;100.00;66290.13;4937237;29;20302;-78
2020/12/24 00:14:16;;;;;;;4.93;3.00;;;9.70;99.90;;;-146.47;100.00;66290.13;4947648;29;20282;-79
2020/12/24 00:17:01;;;;;;;8.27;3.20;;;9.70;99.90;;;-146.47;100.00;66290.13;4937610;29;20227;-79
2020/12/24 00:19:47;;;;;;;7.07;3.60;;;9.70;99.90;;;-146.47;100.00;66290.13;4936067;29;20236;-79
2020/12/24 00:22:32;;;;;;;7.80;3.47;;;9.70;99.90;;;-146.47;100.00;66290.13;4939400;29;20227;-79
2020/12/24 00:25:17;;;;;;;8.13;3.20;;;9.70;99.90;;;-146.47;100.00;66290.13;4938606;29;20203;-79
2020/12/24 00:28:03;;;;;;;10.43;3.57;;;9.70;99.90;;;-146.47;100.00;66290.13;4937649;29;20207;-79
2020/12/24 00:30:48;;;;;;;8.03;3.67;;;9.70;99.90;;;-146.47;100.00;66290.13;4947075;29;20688;-79
2020/12/24 00:33:33;;;;;;;9.47;3.50;;;9.70;99.90;;;-146.47;100.00;66290.13;4934541;29;20373;-78
2020/12/24 00:36:19;;;;;;;7.30;3.20;;;9.60;99.90;;;-146.47;100.00;66290.13;4943236;29;20635;-79
2020/12/24 00:39:04;;;;;;;11.23;3.03;;;9.70;99.90;;;-146.47;100.00;66290.13;4938906;29;22108;-78
2020/12/24 00:41:52;;;;;;;10.03;3.30;;;9.60;99.90;;;-146.47;100.00;66290.13;4946354;29;20206;-78
2020/12/24 00:44:37;;;;;;;11.23;3.40;;;9.60;99.90;;;-146.47;100.00;66290.13;4955508;29;20245;-78
2020/12/24 00:47:22;;;;;;;11.43;3.33;;;9.70;99.90;;;-146.47;100.00;66290.13;4941835;29;20712;-79
2020/12/24 00:50:07;;;;;;;9.07;3.60;;;9.60;99.90;;;-146.47;100.00;66290.13;4945038;29;20608;-78
2020/12/24 00:52:53;;;;;;;11.27;3.00;;;9.60;99.90;;;-146.47;100.00;66290.13;4942062;29;20790;-78
2020/12/24 00:55:38;;;;;;;9.23;3.20;;;9.60;99.90;;;-146.47;100.00;66290.13;4943355;29;20740;-79
2020/12/24 00:58:24;;;;;;;10.97;3.13;;;9.60;99.90;;;-146.47;100.00;66290.13;4954550;29;20210;-79
2020/12/24 01:01:09;;;;;;;14.70;3.43;;;9.60;99.90;;;-146.47;100.00;66290.13;4945911;29;20637;-79
2020/12/24 01:03:54;;;;;;;14.43;4.23;;;9.60;99.90;;;-146.47;100.00;66290.13;4955705;29;20613;-79
2020/12/24 01:06:39;;;;;;;12.07;3.20;;;9.60;99.90;;;-146.47;100.00;66290.13;4942280;29;20760;-79
2020/12/24 01:09:25;;;;;;;11.47;3.33;;;9.50;99.90;;;-146.47;100.00;66290.13;4954604;29;20213;-78
2020/12/24 01:12:10;;;;;;;10.27;4.33;;;9.50;99.90;;;-146.47;100.00;66290.13;4934700;29;20234;-79
2020/12/24 01:14:55;;;;;;;10.87;3.40;;;9.50;99.90;;;-146.47;100.00;66290.13;4938017;29;20625;-79
2020/12/24 01:17:41;;;;;;;11.77;3.27;;;9.50;99.90;;;-146.47;100.00;66290.13;4951854;29;20575;-79
2020/12/24 01:20:26;;;;;;;12.50;3.50;;;9.50;99.90;;;-146.47;100.00;66290.13;4933759;29;20229;-79
2020/12/24 01:23:11;;;;;;;10.63;2.97;;;9.50;99.90;;;-146.47;100.00;66290.13;4942675;29;20293;-79
2020/12/24 01:25:57;;;;;;;7.83;2.60;;;9.50;99.90;;;-146.47;100.00;66290.13;4940447;29;20220;-79
2020/12/24 01:28:42;;;;;;;9.93;2.53;;;9.50;99.90;;;-146.47;100.00;66290.13;4944843;29;20258;-79
2020/12/24 01:31:28;;;;;;;6.03;2.17;;;9.40;99.90;;;-146.47;100.00;66290.13;4960211;28;20265;-78
2020/12/24 01:34:14;;;;;;;6.17;2.10;;;9.40;99.90;;;-146.47;100.00;66290.13;4943166;28;20214;-78
2020/12/24 01:37:01;;;;;;;1.90;1.60;;;9.40;99.90;;;-146.47;100.00;66290.13;4948282;28;20214;-80
2020/12/24 01:39:46;;;;;;;3.53;1.90;;;9.30;99.90;;;-146.47;100.00;66290.13;4940426;29;20279;-80
2020/12/24 01:42:32;;;;;;;3.87;2.33;;;9.30;99.90;;;-146.47;100.00;66290.13;4957366;29;20703;-79
2020/12/24 01:45:17;;;;;;;2.33;1.40;;;9.30;99.90;;;-146.47;100.00;66290.13;4951457;29;20210;-78
2020/12/24 01:48:03;;;;;;;5.43;2.50;;;9.30;99.90;;;-146.47;100.00;66290.13;4939524;29;20243;-79
2020/12/24 01:50:48;;;;;;;7.47;2.30;;;9.30;99.90;;;-146.47;100.00;66290.13;4940583;29;20302;-79
2020/12/24 01:53:34;;;;;;;5.17;2.10;;;9.30;99.90;;;-146.47;100.00;66290.13;4938797;29;20242;-79
2020/12/24 01:56:20;;;;;;;5.97;2.43;;;9.30;99.90;;;-146.47;100.00;66290.13;4938879;29;20693;-80
2020/12/24 01:59:06;;;;;;;13.17;3.03;;;9.20;99.90;;;-146.47;100.00;66290.13;4938855;29;20229;-79
2020/12/24 02:01:52;;;;;;;9.60;2.70;;;9.20;99.90;;;-146.47;100.00;66290.13;4955829;28;20740;-79
2020/12/24 02:04:37;;;;;;;11.90;3.30;;;9.20;99.90;;;-146.47;100.00;66290.13;4952617;29;20250;-79
2020/12/24 02:07:22;;;;;;;4.43;2.17;;;9.20;99.90;;;-146.47;100.00;66290.13;4940232;29;20728;-79
2020/12/24 02:10:07;;;;;;;8.47;3.40;;;9.20;99.90;;;-146.47;100.00;66290.13;4946393;29;20246;-80
2020/12/24 02:12:53;;;;;;;10.63;2.80;;;9.10;99.90;;;-146.47;100.00;66290.13;4942602;29;20234;-80
2020/12/24 02:15:39;;;;;;;11.97;3.60;;;9.10;99.90;;;-146.47;100.00;66290.13;4949596;29;20282;-78
2020/12/24 02:18:25;;;;;;;14.43;3.03;;;9.10;99.90;;;-146.47;100.00;66290.13;4948750;29;20238;-79
2020/12/24 02:21:10;;;;;;;6.43;3.17;;;9.10;99.90;;;-146.47;100.00;66290.13;4947281;28;20258;-79
2020/12/24 02:23:56;;;;;;;10.40;2.90;;;9.10;99.90;;;-146.47;100.00;66290.13;4941833;29;20234;-81
2020/12/24 02:26:41;;;;;;;11.77;3.30;;;9.10;99.90;;;-146.47;100.00;66290.13;4942126;29;20210;-80
2020/12/24 02:29:26;;;;;;;5.30;2.13;;;9.20;99.90;;;-146.47;100.00;66290.13;4940100;29;20235;-81
2020/12/24 02:32:11;;;;;;;11.43;2.80;;;9.10;99.90;;;-146.47;100.00;66290.13;4943192;29;20233;-81
2020/12/24 02:34:57;;;;;;;8.90;2.83;;;9.20;99.90;;;-146.47;100.00;66290.13;4956568;28;20278;-78
2020/12/24 02:37:42;;;;;;;10.83;2.73;;;9.10;99.90;;;-146.47;100.00;66290.13;4939195;29;20266;-79
2020/12/24 02:40:28;;;;;;;9.70;2.80;;;9.20;99.90;;;-146.47;100.00;66290.13;4938419;29;20294;-79
2020/12/24 02:43:13;;;;;;;12.17;3.37;;;9.20;99.90;;;-146.47;100.00;66290.13;4937319;29;20234;-78
2020/12/24 02:45:58;;;;;;;10.50;3.33;;;9.20;99.90;;;-146.47;100.00;66290.13;4938793;29;20688;-78
2020/12/24 02:48:44;;;;;;;8.80;3.00;;;9.20;99.90;;;-146.47;100.00;66290.13;4950421;28;20223;-79
2020/12/24 02:51:29;;;;;;;12.20;3.63;;;9.20;99.90;;;-146.47;100.00;66290.13;4957871;29;20571;-79
2020/12/24 02:54:15;;;;;;;8.10;2.57;;;9.20;99.90;;;-146.47;100.00;66290.13;4956844;29;20221;-80
2020/12/24 02:57:00;;;;;;;9.90;2.97;;;9.20;99.90;;;-146.47;100.00;66290.13;4951308;29;20213;-80
2020/12/24 02:59:45;;;;;;;12.83;4.00;;;9.20;99.90;;;-146.47;100.00;66290.13;4948983;28;20226;-78
2020/12/24 03:02:30;;;;;;;12.80;3.23;;;9.20;99.90;;;-146.47;100.00;66290.13;4938435;29;20290;-78
2020/12/24 03:05:15;;;;;;;8.20;2.50;;;9.20;99.90;;;-146.47;100.00;66290.13;4936772;29;20226;-80
2020/12/24 03:08:00;;;;;;;10.80;3.20;;;9.20;99.90;;;-146.47;100.00;66290.13;4937595;29;20210;-78
2020/12/24 03:10:46;;;;;;;8.70;3.50;;;9.20;99.90;;;-146.47;100.00;66290.13;4936835;29;20229;-79
2020/12/24 03:13:31;;;;;;;8.87;3.17;;;9.10;99.90;;;-146.47;100.00;66290.13;4935941;29;20229;-80
2020/12/24 03:16:17;;;;;;;9.57;3.40;;;9.10;99.90;;;-146.47;100.00;66290.13;4948669;29;20217;-79
2020/12/24 03:19:02;;;;;;;12.03;3.30;;;9.10;99.90;;;-146.47;100.00;66290.13;4943244;29;20214;-77
2020/12/24 03:21:47;;;;;;;11.00;3.63;;;9.10;99.90;;;-146.47;100.00;66290.13;4963257;28;20237;-79
2020/12/24 03:24:32;;;;;;;6.53;2.73;;;9.10;99.90;;;-146.47;100.00;66290.13;4937123;29;20215;-78
2020/12/24 03:27:18;;;;;;;5.87;2.80;;;9.10;99.90;;;-146.47;100.00;66290.13;4953609;29;20226;-80
2020/12/24 03:30:06;;;;;;;10.43;3.20;;;9.10;99.90;;;-146.47;100.00;66290.13;4942075;28;20243;-79
2020/12/24 03:32:51;;;;;;;8.80;3.57;;;9.10;99.90;;;-146.47;100.00;66290.13;4948734;29;20265;-78
2020/12/24 03:35:36;;;;;;;9.87;2.70;;;9.10;99.90;;;-146.47;100.00;66290.13;4937417;29;20254;-79
2020/12/24 03:38:21;;;;;;;11.67;3.10;;;9.10;99.90;;;-146.47;100.00;66290.13;4936712;29;20270;-78
2020/12/24 03:41:06;;;;;;;14.87;3.30;;;9.10;99.90;;;-146.47;100.00;66290.13;4942397;29;20273;-79
2020/12/24 03:43:52;;;;;;;9.83;3.23;;;9.10;99.90;;;-146.47;100.00;66290.13;4939491;29;20230;-79
2020/12/24 03:46:39;;;;;;;13.73;3.30;;;9.10;99.90;;;-146.47;100.00;66290.13;4954829;28;20201;-78
2020/12/24 03:49:24;;;;;;;13.63;3.27;;;9.10;99.90;;;-146.47;100.00;66290.13;4935511;29;20643;-78
2020/12/24 03:52:09;;;;;;;10.27;4.07;;;9.00;99.90;;;-146.47;100.00;66290.13;4936681;29;20282;-78
2020/12/24 03:54:55;;;;;;;12.17;3.47;;;9.00;99.90;;;-146.47;100.00;66290.13;4935503;29;20218;-78
2020/12/24 03:57:40;;;;;;;8.27;3.27;;;9.00;99.90;;;-146.47;100.00;66290.13;4949337;29;20215;-78
2020/12/24 04:00:26;;;;;;;8.57;3.30;;;9.00;99.90;;;-146.47;100.00;66290.13;4955215;28;20232;-78
2020/12/24 04:03:12;;;;;;;11.60;4.10;;;9.00;99.90;;;-146.47;100.00;66290.13;4935204;29;20290;-79
2020/12/24 04:05:57;;;;;;;10.73;3.57;;;9.00;99.90;;;-146.47;100.00;66290.13;4939686;29;20209;-78
2020/12/24 04:08:42;;;;;;;14.97;3.60;;;9.00;99.90;;;-146.47;100.00;66290.13;4944866;29;20319;-79
2020/12/24 04:11:27;;;;;;;9.57;3.90;;;8.90;99.90;;;-146.47;100.00;66290.13;4936509;29;20689;-80
2020/12/24 04:14:12;;;;;;;11.27;3.73;;;8.90;99.90;;;-146.47;100.00;66290.13;4936998;29;20613;-80
2020/12/24 04:16:59;;;;;;;13.67;4.37;;;8.90;99.90;;;-146.47;100.00;66290.13;4939096;29;20271;-78
2020/12/24 04:19:44;;;;;;;11.13;4.10;;;8.90;99.90;;;-146.47;100.00;66290.13;4953941;29;20217;-78
2020/12/24 04:22:29;;;;;;;9.10;3.83;;;8.90;99.90;;;-146.47;100.00;66290.13;4944144;29;20764;-80
2020/12/24 04:25:14;;;;;;;8.03;3.30;;;8.90;99.90;;;-146.47;100.00;66290.13;4935095;29;20290;-79
2020/12/24 04:27:59;;;;;;;9.37;3.53;;;9.00;99.90;;;-146.47;100.00;66290.13;4936477;29;20673;-79
2020/12/24 04:30:45;;;;;;;11.37;3.53;;;9.10;99.90;;;-146.47;100.00;66290.13;4936958;29;20215;-79
2020/12/24 04:33:31;;;;;;;11.13;3.93;;;9.00;99.90;;;-146.47;100.00;66290.13;4949282;28;20269;-79
2020/12/24 04:36:16;;;;;;;9.20;3.50;;;8.90;99.90;;;-146.47;100.00;66290.13;4936305;29;20219;-80
2020/12/24 04:39:02;;;;;;;15.30;4.67;;;8.90;99.90;;;-146.47;100.00;66290.13;4949678;29;20215;-79
2020/12/24 04:41:47;;;;;;;10.47;3.40;;;9.00;99.90;;;-146.47;100.00;66290.13;4949717;29;20206;-78
2020/12/24 04:44:34;;;;;;;8.17;3.07;;;9.00;99.90;;;-146.47;100.00;66290.13;4935911;29;20757;-78
2020/12/24 04:47:21;;;;;;;9.43;3.70;;;9.00;99.90;;;-146.47;100.00;66290.13;4943047;29;20209;-79
2020/12/24 04:50:08;;;;;;;11.07;3.27;;;9.00;99.90;;;-146.47;100.00;66290.13;4936220;29;20214;-80
2020/12/24 04:52:54;;;;;;;12.67;3.93;;;9.00;99.90;;;-146.47;100.00;66290.13;4935831;29;20232;-78
2020/12/24 04:55:39;;;;;;;8.50;3.27;;;9.00;99.90;;;-146.47;100.00;66290.13;4946133;29;20249;-78
2020/12/24 04:58:25;;;;;;;13.93;4.43;;;9.00;99.90;;;-146.47;100.00;66290.13;4958165;29;20278;-78
2020/12/24 05:01:15;;;;;;;10.67;3.67;;;9.00;99.90;;;-146.47;100.00;66290.13;4950994;28;20250;-80
2020/12/24 05:04:00;;;;;;;13.97;3.87;;;8.90;99.90;;;-146.47;100.00;66290.13;4939486;29;20250;-79
2020/12/24 05:06:46;;;;;;;13.67;4.20;;;8.90;99.90;;;-146.47;100.00;66290.13;4950104;29;20215;-79
2020/12/24 05:09:31;;;;;;;8.33;3.40;;;9.00;99.90;;;-146.47;100.00;66290.13;4957144;29;20558;-78
2020/12/24 05:12:28;;;;;;;17.33;4.30;;;9.00;99.90;;;-146.47;100.00;66290.13;4948368;29;20243;-79
2020/12/24 05:15:26;;;;;;;19.93;4.00;;;8.90;99.90;;;-146.47;100.00;66290.13;4948233;29;20720;-80
2020/12/24 05:18:18;;;;;;;13.20;3.47;;;8.90;99.90;;;-146.47;100.00;66290.13;4958706;29;20214;-80
2020/12/24 05:21:03;;;;;;;13.87;3.77;;;8.90;99.90;;;-146.47;100.00;66290.13;4949033;29;20219;-78
2020/12/24 05:23:49;;;;;;;9.73;3.60;;;8.90;99.90;;;-146.47;100.00;66290.13;4946032;29;20231;-78
2020/12/24 05:26:34;;;;;;;9.43;3.20;;;8.90;99.90;;;-146.47;100.00;66290.13;4957799;29;20285;-79
2020/12/24 05:29:19;;;;;;;2.20;2.00;;;8.90;99.90;;;-146.47;100.00;66290.13;4949787;29;20287;-80
2020/12/24 05:32:05;;;;;;;2.20;2.00;;;8.90;99.90;;;-146.47;100.00;66290.13;4943646;29;20269;-80
2020/12/24 05:34:50;;;;;;;2.37;2.17;;;8.90;99.90;;;-146.47;100.00;66290.13;4945197;29;20250;-79
2020/12/24 05:37:35;;;;;;;2.27;2.17;;;8.80;99.90;;;-146.47;100.00;66290.13;4939219;29;20283;-79
2020/12/24 05:40:26;;;;;;;1.87;1.77;;;8.80;99.90;;;-146.47;100.00;66290.13;4939205;29;20214;-79
2020/12/24 05:43:14;;;;;;;1.63;1.63;;;8.70;99.90;;;-146.47;100.00;66290.13;4938824;29;20793;-78
2020/12/24 05:46:04;;;;;;;1.70;1.60;;;8.60;99.90;;;-146.47;100.00;66290.13;4946747;29;20214;-80
2020/12/24 05:48:49;;;;;;;1.60;1.60;;;8.40;99.90;;;-146.47;100.00;66290.13;4942510;29;20223;-79
2020/12/24 05:51:35;;;;;;;1.80;1.77;;;8.40;99.90;;;-146.47;100.00;66290.13;4940766;29;20220;-79
2020/12/24 05:54:21;;;;;;;1.70;1.50;;;8.20;99.90;;;-146.47;100.00;66290.13;4938171;29;20725;-79
2020/12/24 05:57:07;;;;;;;1.60;1.50;;;8.10;99.90;;;-146.47;100.00;66290.13;4938560;29;20666;-79
2020/12/24 05:59:54;;;;;;;1.80;1.70;;;7.90;99.90;;;-146.47;100.00;66290.13;4957538;28;20224;-78
2020/12/24 06:02:55;;;;;;;1.70;1.70;;;7.80;99.90;;;-146.47;100.00;66290.13;4956419;29;20273;-78
2020/12/24 06:05:57;;;;;;;1.40;1.40;;;7.70;99.90;;;-146.47;100.00;66290.13;4956430;29;20348;-79
2020/12/24 06:08:47;;;;;;;1.67;1.57;;;7.50;99.90;;;-146.47;100.00;66290.13;4943315;29;20717;-81
2020/12/24 06:11:50;;;;;;;1.50;1.50;;;7.40;99.90;;;-146.47;100.00;66290.13;4938454;29;20710;-79
2020/12/24 06:14:38;;;;;;;1.10;1.10;;;7.30;99.90;;;-146.47;100.00;66290.13;4940907;29;20210;-78
2020/12/24 06:17:25;;;;;;;1.90;1.50;;;7.10;99.90;;;-146.47;100.00;66290.13;4944784;29;20202;-78
2020/12/24 06:20:19;;;;;;;1.43;1.43;;;7.10;99.90;;;-146.47;100.00;66290.13;4938177;29;20218;-79
2020/12/24 06:23:05;;;;;;;1.67;1.63;;;7.00;99.90;;;-146.47;100.00;66290.13;4944332;29;20278;-79
2020/12/24 06:25:53;;;;;;;1.70;1.70;;;6.80;99.90;;;-146.47;100.00;66290.13;4937707;29;20214;-79
2020/12/24 06:28:43;;;;;;;2.20;2.00;;;6.70;99.90;;;-146.47;100.00;66290.13;4940914;29;20331;-79
2020/12/24 06:31:30;;;;;;;2.13;2.03;;;6.60;99.90;;;-146.47;100.00;66290.13;4955276;28;20744;-79
2020/12/24 06:34:24;;;;;;;2.03;1.93;;;6.50;99.90;;;-146.47;100.00;66290.13;4945447;29;20238;-78
2020/12/24 06:37:15;;;;;;;1.90;1.80;;;6.40;99.90;;;-146.47;100.00;66290.13;4942520;29;20214;-78
2020/12/24 06:40:00;;;;;;;1.90;1.80;;;6.30;99.90;;;-146.47;100.00;66290.13;4954682;29;20229;-79
2020/12/24 06:42:46;;;;;;;1.87;1.87;;;6.30;99.90;;;-146.47;100.00;66290.13;4936577;29;20231;-78
2020/12/24 06:45:36;;;;;;;2.20;2.10;;;6.20;99.90;;;-146.47;100.00;66290.13;4949654;28;20600;-78
2020/12/24 06:48:24;;;;;;;2.00;1.90;;;6.10;99.90;;;-146.47;100.00;66290.13;4942076;29;20235;-78
2020/12/24 06:51:12;;;;;;;1.80;1.70;;;6.00;99.90;;;-146.47;100.00;66290.13;4936933;29;20267;-78
2020/12/24 06:53:57;;;;;;;1.40;1.40;;;6.00;99.90;;;-146.47;100.00;66290.13;4934672;29;20379;-78
2020/12/24 06:56:42;;;;;;;1.73;1.37;;;6.00;99.90;;;-146.47;100.00;66290.13;4955355;29;20289;-78
2020/12/24 06:59:27;;;;;;;2.67;1.40;;;5.90;99.90;;;-146.47;100.00;66290.13;4954561;29;20231;-78
2020/12/24 07:02:24;;;;;;;1.80;1.70;;;5.90;99.90;;;-146.47;100.00;66290.13;4948554;29;20229;-78
2020/12/24 07:05:42;;;;;;;1.97;1.87;;;5.80;99.90;;;-146.47;100.00;66290.13;4954260;29;20230;-78
2020/12/24 07:08:48;;;;;;;1.73;1.63;;;5.80;99.90;;;-146.47;100.00;66290.13;4945267;29;20246;-78
2020/12/24 07:11:41;;;;;;;3.33;1.87;;;5.70;99.90;;;-146.47;100.00;66290.13;4943220;29;20205;-78
2020/12/24 07:14:28;;;;;;;3.23;2.00;;;5.70;99.90;;;-146.47;100.00;66290.13;4938164;29;20714;-78
2020/12/24 07:17:18;;;;;;;1.83;1.73;;;5.70;99.90;;;-146.47;100.00;66290.13;4947675;29;20214;-78
2020/12/24 07:20:04;;;;;;;1.60;1.50;;;5.60;99.90;;;-146.47;100.00;66290.13;4942995;28;20206;-78
2020/12/24 07:22:56;;;;;;;1.70;1.60;;;5.60;99.90;;;-146.47;100.00;66290.13;4944225;29;20238;-77
2020/12/24 07:25:46;;;;;;;1.60;1.50;;;5.60;99.90;;;-146.47;100.00;66290.13;4941443;29;20291;-79
2020/12/24 07:28:34;;;;;;;1.67;1.50;;;5.60;99.90;;;-146.47;100.00;66290.13;4946073;29;20272;-79
2020/12/24 07:31:27;;;;;;;2.73;1.97;;;5.60;99.90;;;-146.47;100.00;66290.13;4947562;29;20225;-79
2020/12/24 07:34:12;;;;;;;2.90;1.60;;;5.50;99.90;;;-146.47;100.00;66290.13;4935077;29;20207;-80
2020/12/24 07:36:58;;;;;;;3.30;1.70;;;5.50;99.90;;;-146.47;100.00;66290.13;4935674;29;20587;-77
2020/12/24 07:39:52;;;;;;;2.23;1.70;;;5.50;99.90;;;-146.47;100.00;66290.13;4945630;29;20641;-77
2020/12/24 07:42:38;;;;;;;1.83;1.67;;;5.50;99.90;;;-146.47;100.00;66290.13;4946870;29;20639;-78
2020/12/24 07:45:24;;;;;;;3.23;1.60;;;5.50;99.90;;;-146.47;100.00;66290.13;4936284;29;20274;-79
2020/12/24 07:48:15;;;;;;;1.37;1.27;;;5.50;99.90;;;-146.47;100.00;66290.13;4935042;29;20713;-78
2020/12/24 07:51:08;;;;;;;1.80;1.60;;;5.50;99.90;;;-146.47;100.00;66290.13;4935668;29;20209;-78
2020/12/24 07:53:53;;;;;;;2.20;1.57;;;5.50;99.90;;;-146.47;100.00;66290.13;4947073;29;20270;-78
2020/12/24 07:56:45;;;;;;;2.50;1.60;;;5.50;99.90;;;-146.47;100.00;66290.13;4949624;29;20641;-78
2020/12/24 07:59:30;;;;;;;4.30;1.90;;;5.50;99.90;;;-146.47;100.00;66290.13;4949360;28;20202;-78
2020/12/24 08:02:16;;;;;;;2.87;1.70;;;5.50;99.90;;;-146.47;100.00;66290.13;4950828;28;20220;-79
2020/12/24 08:05:01;;;;;;;1.60;1.50;;;5.50;99.90;;;-146.47;100.00;66290.13;4946051;28;20213;-78
2020/12/24 08:07:51;;;;;;;1.70;1.60;;;5.50;99.90;;;-146.47;100.00;66290.13;4945842;29;20777;-78
2020/12/24 08:10:38;;;;;;;2.40;1.80;;;5.50;99.90;;;-146.47;100.00;66290.13;4947535;29;20258;-78
2020/12/24 08:13:24;;;;;;;3.43;1.70;;;5.50;99.90;;;-146.47;100.00;66290.13;4941528;29;20229;-78
2020/12/24 08:16:12;;;;;;;1.47;1.37;;;5.50;99.90;;;-146.47;100.00;66290.13;4942103;29;20590;-80
2020/12/24 08:19:05;;;;;;;2.13;1.87;;;5.50;99.90;;;-146.47;100.00;66290.13;4942027;29;20249;-79
2020/12/24 08:22:00;;;;;;;2.10;1.80;;;5.50;99.90;;;-146.47;100.00;66290.13;4939467;29;20213;-79
2020/12/24 08:24:45;;;;;;;1.93;1.73;;;5.50;99.90;;;-146.47;100.00;66290.13;4948457;29;20537;-79
2020/12/24 08:27:32;;;;;;;4.60;2.00;;;5.50;99.90;;;-146.47;100.00;66290.13;4949465;29;20221;-79
2020/12/24 08:30:19;;;;;;;3.73;2.00;;;5.60;99.90;;;-146.47;100.00;66290.13;4952403;28;20237;-79
2020/12/24 08:33:05;;;;;;;2.33;2.07;;;5.60;99.90;;;-146.47;100.00;66290.13;4957688;28;20731;-79
2020/12/24 08:35:50;;;;;;;4.37;2.47;;;5.60;99.90;;;-146.47;100.00;66290.13;4933043;29;20219;-78
2020/12/24 08:38:35;;;;;;;2.80;2.00;;;5.60;99.90;;;-146.47;100.00;66290.13;4948447;28;20217;-79
2020/12/24 08:41:25;;;;;;;2.73;2.00;;;5.60;99.90;;;-146.47;100.00;66290.13;4941969;28;20716;-78
2020/12/24 08:44:15;;;;;;;3.93;2.00;;;5.70;99.90;;;-146.47;100.00;66290.13;4954783;28;20272;-79
2020/12/24 08:47:05;;;;;;;2.83;1.90;;;5.70;99.90;;;-146.47;100.00;66290.13;4932088;28;20243;-79
2020/12/24 08:49:50;;;;;;;2.57;1.83;;;5.70;99.90;;;-146.47;100.00;66290.13;4953325;28;20245;-80
2020/12/24 08:52:37;;;;;;;2.10;1.90;;;5.70;99.90;;;-146.47;100.00;66290.13;4938629;28;20233;-78
2020/12/24 08:55:27;;;;;;;4.60;1.97;;;5.70;99.90;;;-146.47;100.00;66290.13;4935018;28;20218;-78
2020/12/24 08:58:12;;;;;;;4.80;2.43;;;5.70;99.90;;;-146.47;100.00;66290.13;4944786;29;20226;-78
2020/12/24 09:01:06;;;;;;;4.40;2.23;;;5.80;99.90;;;-146.47;100.00;66290.13;4949136;28;20267;-78
2020/12/24 09:03:52;;;;;;;4.50;2.80;;;5.80;99.90;;;-146.47;100.00;66290.13;4933457;29;20222;-79
2020/12/24 09:06:38;;;;;;;4.60;2.97;;;5.80;99.90;;;-146.47;100.00;66290.13;4934607;29;20217;-80
2020/12/24 09:09:25;;;;;;;3.23;2.90;;;5.90;99.90;;;-146.47;100.00;66290.13;4948407;29;20214;-79
2020/12/24 09:12:12;;;;;;;4.80;2.70;;;5.90;99.90;;;-146.47;100.00;66290.13;4944738;29;20274;-78
2020/12/24 09:15:04;;;;;;;4.67;3.23;;;5.90;99.90;;;-146.47;100.00;66290.13;4940628;29;20214;-79
2020/12/24 09:17:54;;;;;;;4.60;3.80;;;6.00;99.90;;;-146.47;100.00;66290.13;4944135;29;20295;-80
2020/12/24 09:20:40;;;;;;;3.33;2.87;;;6.00;99.90;;;-146.47;100.00;66290.13;4942373;29;20712;-80
2020/12/24 09:23:30;;;;;;;4.73;3.80;;;6.00;99.90;;;-146.47;100.00;66290.13;4938031;29;20225;-79
2020/12/24 09:26:15;;;;;;;4.57;3.10;;;6.00;99.90;;;-146.47;100.00;66290.13;4941639;29;20218;-79
2020/12/24 09:29:00;;;;;;;4.00;2.83;;;6.00;99.90;;;-146.47;100.00;66290.13;4943772;29;20223;-79
2020/12/24 09:31:56;;;;;;;2.93;2.70;;;6.10;99.90;;;-146.47;100.00;66290.13;4948550;28;20314;-79
2020/12/24 09:34:41;;;;;;;5.63;3.00;;;6.10;99.90;;;-146.47;100.00;66290.13;4953120;29;20250;-78
2020/12/24 09:37:27;;;;;;;5.40;3.20;;;6.10;99.90;;;-146.47;100.00;66290.13;4941505;29;20214;-78
2020/12/24 09:40:12;;;;;;;6.50;2.83;;;6.10;99.90;;;-146.47;100.00;66290.13;4939627;29;20629;-79
2020/12/24 09:42:57;;;;;;;4.30;3.70;;;6.20;99.90;;;-146.47;100.00;66290.13;4953935;28;20253;-79
2020/12/24 09:45:42;;;;;;;5.63;3.50;;;6.10;99.90;;;-146.47;100.00;66290.13;4938867;29;20779;-78
2020/12/24 09:48:28;;;;;;;5.33;3.90;;;6.20;99.90;;;-146.47;100.00;66290.13;4936825;29;20282;-78
2020/12/24 09:51:13;;;;;;;7.17;4.47;;;6.20;99.90;;;-146.47;100.00;66290.13;4945739;29;20577;-79
2020/12/24 09:53:59;;;;;;;7.87;4.83;;;6.20;99.90;;;-146.47;100.00;66290.13;4948390;29;20733;-79
2020/12/24 09:56:45;;;;;;;6.83;4.47;;;6.20;99.90;;;-146.47;100.00;66290.13;4938348;29;20978;-79
2020/12/24 09:59:30;;;;;;;8.30;5.17;;;6.30;99.90;;;-146.47;100.00;66290.13;4938597;29;20202;-78
2020/12/24 10:02:15;;;;;;;9.47;5.33;;;6.30;99.90;;;-146.47;100.00;66290.13;4945015;28;20225;-78
2020/12/24 10:05:00;;;;;;;6.83;4.77;;;6.40;99.90;;;-146.47;100.00;66290.13;4939573;28;20209;-79
2020/12/24 10:07:45;;;;;;;8.87;5.77;;;6.30;99.90;;;-146.47;100.00;66290.13;4946778;28;20298;-79
2020/12/24 10:10:31;;;;;;;5.13;4.57;;;6.40;99.90;;;-146.47;100.00;66290.13;4950740;29;20210;-79
2020/12/24 10:13:16;;;;;;;5.40;3.97;;;6.40;99.90;;;-146.47;100.00;66290.13;4936862;29;20279;-80
2020/12/24 10:16:02;;;;;;;4.77;3.87;;;6.40;99.90;;;-146.47;100.00;66290.13;4944144;29;20239;-79
2020/12/24 10:18:47;;;;;;;5.90;3.90;;;6.40;99.90;;;-146.47;100.00;66290.13;4953107;29;20205;-79
2020/12/24 10:21:32;;;;;;;4.90;3.90;;;6.40;99.90;;;-146.47;100.00;66290.13;4945721;29;20218;-79
2020/12/24 10:24:18;;;;;;;5.87;3.40;;;6.40;99.90;;;-146.47;100.00;66290.13;4941989;29;20298;-79
2020/12/24 10:27:03;;;;;;;6.43;3.87;;;6.40;99.90;;;-146.47;100.00;66290.13;4940241;29;20261;-79
2020/12/24 10:29:48;;;;;;;5.63;2.80;;;6.50;99.90;;;-146.47;100.00;66290.13;4937458;29;20295;-78
2020/12/24 10:32:36;;;;;;;4.87;3.10;;;6.50;99.90;;;-146.47;100.00;66290.13;4940597;28;20368;-79
2020/12/24 10:35:21;;;;;;;6.17;3.37;;;6.50;99.90;;;-146.47;100.00;66290.13;4942124;29;20215;-79
2020/12/24 10:38:06;;;;;;;4.60;3.20;;;6.50;99.90;;;-146.47;100.00;66290.13;4946092;29;20214;-79
2020/12/24 10:40:51;;;;;;;5.67;3.00;;;6.50;99.90;;;-146.47;100.00;66290.13;4942802;28;20307;-80
2020/12/24 10:43:37;;;;;;;5.67;2.80;;;6.50;99.90;;;-146.47;100.00;66290.13;4939713;29;20492;-79
2020/12/24 10:46:23;;;;;;;4.10;2.53;;;6.60;99.90;;;-146.47;100.00;66290.13;4945590;29;20303;-78
2020/12/24 10:49:08;;;;;;;5.13;2.93;;;6.60;99.90;;;-146.47;100.00;66290.13;4958824;29;20695;-79
2020/12/24 10:51:54;;;;;;;4.30;3.00;;;6.60;99.90;;;-146.47;100.00;66290.13;4951677;29;20225;-80
2020/12/24 10:54:39;;;;;;;9.53;3.43;;;6.60;99.90;;;-146.47;100.00;66290.13;4954296;28;20215;-79
2020/12/24 10:57:24;;;;;;;6.17;3.50;;;6.60;99.90;;;-146.47;100.00;66290.13;4939561;28;20289;-79
2020/12/24 11:00:10;;;;;;;6.23;3.80;;;6.70;99.90;;;-146.47;100.00;66290.13;4947153;28;20561;-80
2020/12/24 11:02:55;;;;;;;5.93;3.63;;;6.70;99.90;;;-146.47;100.00;66290.13;4945788;28;21043;-78
2020/12/24 11:05:41;;;;;;;5.47;3.73;;;6.70;99.90;;;-146.47;100.00;66290.13;4946392;28;20210;-78
2020/12/24 11:08:26;;;;;;;6.03;3.90;;;6.80;99.90;;;-146.47;100.00;66290.13;4937140;29;20241;-80
2020/12/24 11:11:12;;;;;;;8.13;4.30;;;6.80;99.90;;;-146.47;100.00;66290.13;4950911;29;20227;-79
2020/12/24 11:13:57;;;;;;;10.03;3.60;;;6.80;99.90;;;-146.47;100.00;66290.13;4936409;29;20310;-79
2020/12/24 11:16:43;;;;;;;6.73;3.53;;;6.80;99.90;;;-146.47;100.00;66290.13;4936043;29;20291;-78
2020/12/24 11:19:28;;;;;;;8.23;4.20;;;6.80;99.90;;;-146.47;100.00;66290.13;4946010;29;20213;-78
2020/12/24 11:22:13;;;;;;;9.63;4.17;;;6.90;99.90;;;-146.47;100.00;66290.13;4941029;29;20775;-79
2020/12/24 11:24:59;;;;;;;7.60;3.70;;;6.90;99.90;;;-146.47;100.00;66290.13;4940394;29;20274;-79